Upstream stations:
Downstream station:
SHEF ID: EREK1 NEOSHO R NR ERIE, KS
STATION TYPE:
PRECIP STAGE RIV-FLOW BAT-LOAD
in ft cfs volt
Ccp-Rev Ccp-Rev Ccp-Rev Ccp-Rev
(US/Central)
03/31 00:00 0.00 18.54 9380 12.60
03/31 01:00 0.00 18.73 9640 12.54
03/31 02:00 0.00 18.87 9830 12.54
03/31 03:00 0.00 18.98 9980 12.48
03/31 04:00 0.00 19.04 10100 12.42
03/31 05:00 0.00 19.08 10100 12.42
03/31 06:00 0.00 19.07 10100 12.42
03/31 07:00 0.00 19.00 10000 12.42
03/31 08:00 0.00 18.98 9980 12.36
03/31 09:00 0.00 18.88 9840 12.54
03/31 10:00 0.00 18.83 9780 13.36
03/31 11:00 0.00 18.75 9670 13.59
03/31 12:00 0.02 18.67 9560 13.65
03/31 13:00 0.00 18.62 9490 13.83
03/31 14:00 0.00 18.57 9420 13.59
03/31 15:00 0.00 18.55 9400 13.83
03/31 16:00 0.00 18.53 9370 13.94
03/31 17:00 0.00 18.52 9360 14.06
03/31 18:00 0.00 18.52 9360 14.24
03/31 19:00 0.00 18.52 9360 14.12
03/31 20:00 0.00 18.52 9360 13.94
03/31 21:00 0.00 18.51 9340 12.89
03/31 22:00 0.00 18.50 9330 12.65
03/31 23:00 0.00 18.49 9320 12.65